ZA-0047 weather

Augrabies Airport
Orange Falls, Northern Cape, South Africa

Public forecast

Using degrees Celsius for public forecast. Weather courtesy of forecast.io.

METAR (pilot weather report)

Closest report is Pierre Van Ryneveld Airport, 51.5 nm (95.4 km) ENE. Retrieved 2019/08/25 21:00 UTC (23 minutes ago):

FAUP 252100Z AUTO 35005KT //// // ////// 17/M06 Q1021

TAF (pilot weather forecast)

Closest forecast is Pierre Van Ryneveld Airport, 51.5 nm (95.4 km) ENE. Retrieved 2019/08/25 18:00 UTC (3 hours ago):

TAF FAUP 251600Z 2518/2618 34008KT CAVOK TX30/2613Z TN11/2605Z